Time;durP1;ratioP1;P1;durP2;ratioP2;P2;SDS_P1;SDS_P2;PMS_P1;PMS_P2;Temp;Humidity;BMP_temperature;BMP_pressure;BME280_temperature;BME280_humidity;BME280_pressure;Samples;Min_cycle;Max_cycle;Signal;HPM_P1;HPM_P2
2022/03/10 00:01:43;;;;;;;;;;;3.40;95.10;;;;;;5042586;28;19931;-77
2022/03/10 00:04:10;;;;;;;;;;;3.40;95.50;;;;;;5035283;28;19931;-77
2022/03/10 00:06:37;;;;;;;;;;;3.40;95.60;;;;;;5052840;28;19964;-75
2022/03/10 00:09:03;;;;;;;;;;;3.30;95.40;;;;;;5053441;28;19932;-75
2022/03/10 00:11:30;;;;;;;;;;;3.40;95.60;;;;;;5033928;28;20350;-76
2022/03/10 00:13:56;;;;;;;;;;;3.30;95.40;;;;;;5035157;28;19924;-78
2022/03/10 00:16:23;;;;;;;;;;;3.30;95.70;;;;;;5034919;28;19936;-80
2022/03/10 00:18:49;;;;;;;;;;;3.30;95.70;;;;;;5063661;28;20007;-75
2022/03/10 00:21:16;;;;;;;;;;;3.30;95.10;;;;;;5037770;28;19931;-77
2022/03/10 00:23:42;;;;;;;;;;;3.30;95.70;;;;;;5034380;28;20280;-75
2022/03/10 00:26:09;;;;;;;;;;;3.30;95.20;;;;;;5034611;28;20007;-77
2022/03/10 00:28:35;;;;;;;;;;;3.30;95.00;;;;;;5035187;28;19932;-77
2022/03/10 00:31:02;;;;;;;;;;;3.30;94.90;;;;;;5035409;28;19931;-75
2022/03/10 00:33:29;;;;;;;;;;;3.30;95.70;;;;;;5034445;28;19932;-77
2022/03/10 00:35:55;;;;;;;;;;;3.30;95.70;;;;;;5034688;28;19925;-76
2022/03/10 00:38:22;;;;;;;;;;;3.20;95.50;;;;;;5040075;28;19924;-76
2022/03/10 00:40:48;;;;;;;;;;;3.20;96.10;;;;;;5052504;28;19924;-75
2022/03/10 00:43:15;;;;;;;;;;;3.20;96.00;;;;;;5034665;28;20364;-77
2022/03/10 00:45:41;;;;;;;;;;;3.20;96.20;;;;;;5045191;28;20398;-77
2022/03/10 00:48:09;;;;;;;;;;;3.10;96.90;;;;;;5035956;28;19932;-76
2022/03/10 00:50:35;;;;;;;;;;;3.10;97.20;;;;;;5034279;28;20006;-76
2022/03/10 00:53:02;;;;;;;;;;;2.90;98.40;;;;;;5034602;28;20283;-78
2022/03/10 00:55:28;;;;;;;;;;;2.90;98.70;;;;;;5033798;28;19931;-81
2022/03/10 00:57:55;;;;;;;;;;;2.90;98.80;;;;;;5040865;28;19925;-76
2022/03/10 01:00:24;;;;;;;;;;;2.80;98.80;;;;;;5034552;28;19929;-77
2022/03/10 01:02:50;;;;;;;;;;;2.70;98.80;;;;;;5033938;28;19968;-76
2022/03/10 01:05:17;;;;;;;;;;;2.70;99.20;;;;;;5034465;28;19931;-77
2022/03/10 01:07:44;;;;;;;;;;;2.60;99.90;;;;;;5033984;28;19932;-77
2022/03/10 01:10:10;;;;;;;;;;;2.60;99.90;;;;;;5034693;28;19932;-77
2022/03/10 01:12:40;;;;;;;;;;;2.50;99.90;;;;;;5033365;28;19924;-77
2022/03/10 01:15:07;;;;;;;;;;;2.50;99.90;;;;;;5034422;28;19925;-77
2022/03/10 01:17:34;;;;;;;;;;;2.40;99.90;;;;;;5033946;28;19935;-77
2022/03/10 01:20:00;;;;;;;;;;;2.40;99.90;;;;;;5034711;28;20363;-76
2022/03/10 01:22:27;;;;;;;;;;;2.40;99.90;;;;;;5036267;28;19932;-77
2022/03/10 01:24:53;;;;;;;;;;;2.40;99.90;;;;;;5033596;28;19925;-75
2022/03/10 01:27:20;;;;;;;;;;;2.40;99.90;;;;;;5033670;28;19931;-77
2022/03/10 01:29:46;;;;;;;;;;;2.30;99.90;;;;;;5037701;28;19932;-77
2022/03/10 01:32:13;;;;;;;;;;;2.30;99.90;;;;;;5037820;28;19929;-77
2022/03/10 01:34:39;;;;;;;;;;;2.30;99.90;;;;;;5050997;28;20000;-76
2022/03/10 01:37:06;;;;;;;;;;;2.30;99.90;;;;;;5034186;28;19929;-76
2022/03/10 01:39:33;;;;;;;;;;;2.20;99.90;;;;;;5033547;28;19925;-79
2022/03/10 01:41:59;;;;;;;;;;;2.20;99.90;;;;;;5051810;28;20478;-77
2022/03/10 01:44:26;;;;;;;;;;;2.10;99.90;;;;;;5037312;28;19924;-77
2022/03/10 01:46:53;;;;;;;;;;;2.10;99.90;;;;;;5043833;28;19932;-77
2022/03/10 01:49:19;;;;;;;;;;;2.10;99.90;;;;;;5051792;28;19931;-78
2022/03/10 01:51:46;;;;;;;;;;;2.10;99.90;;;;;;5051171;28;19932;-77
2022/03/10 01:54:12;;;;;;;;;;;2.00;99.90;;;;;;5033907;28;19925;-77
2022/03/10 01:56:39;;;;;;;;;;;2.00;99.90;;;;;;5044054;28;19924;-77
2022/03/10 01:59:05;;;;;;;;;;;2.00;99.90;;;;;;5037498;28;19924;-77
2022/03/10 02:01:32;;;;;;;;;;;2.00;99.90;;;;;;5055625;28;20368;-80
2022/03/10 02:03:59;;;;;;;;;;;1.90;99.90;;;;;;5039121;28;20449;-77
2022/03/10 02:06:25;;;;;;;;;;;1.90;99.90;;;;;;5042397;28;19929;-78
2022/03/10 02:11:36;;;;;;;;;;;1.90;99.90;;;;;;5036722;28;19931;-78
2022/03/10 02:17:19;;;;;;;;;;;1.90;99.90;;;;;;5037216;28;19925;-77
2022/03/10 02:19:33;;;;;;;;;;;1.90;99.90;;;;;;5037480;28;19932;-79
2022/03/10 02:22:00;;;;;;;;;;;1.90;99.90;;;;;;5046361;28;19924;-75
2022/03/10 02:24:26;;;;;;;;;;;1.90;99.90;;;;;;5039372;28;19925;-76
2022/03/10 02:26:53;;;;;;;;;;;1.80;99.90;;;;;;5040695;28;19925;-76
2022/03/10 02:29:20;;;;;;;;;;;1.80;99.90;;;;;;5037242;28;19925;-76
2022/03/10 02:31:46;;;;;;;;;;;1.80;99.90;;;;;;5042949;28;19924;-77
2022/03/10 02:34:13;;;;;;;;;;;1.70;99.90;;;;;;5037042;28;19925;-77
2022/03/10 02:36:39;;;;;;;;;;;1.80;99.90;;;;;;5036711;28;19940;-77
2022/03/10 02:39:06;;;;;;;;;;;1.70;99.90;;;;;;5036940;28;19925;-76
2022/03/10 02:41:33;;;;;;;;;;;1.70;99.90;;;;;;5054671;28;20372;-77
2022/03/10 02:43:59;;;;;;;;;;;1.70;99.90;;;;;;5036993;28;19925;-76
2022/03/10 02:46:26;;;;;;;;;;;1.70;99.90;;;;;;5048897;28;19992;-77
2022/03/10 02:48:52;;;;;;;;;;;1.70;99.90;;;;;;5036337;28;19935;-77
2022/03/10 02:51:19;;;;;;;;;;;1.70;99.90;;;;;;5042842;28;19924;-76
2022/03/10 02:53:45;;;;;;;;;;;1.70;99.90;;;;;;5040432;28;19925;-75
2022/03/10 02:56:12;;;;;;;;;;;1.70;99.90;;;;;;5037237;28;19929;-77
2022/03/10 02:58:39;;;;;;;;;;;1.70;99.90;;;;;;5054300;28;19925;-81
2022/03/10 03:01:05;;;;;;;;;;;1.70;99.90;;;;;;5036904;28;19925;-76
2022/03/10 03:03:33;;;;;;;;;;;1.70;99.90;;;;;;5036974;28;19928;-75
2022/03/10 03:06:00;;;;;;;;;;;1.70;99.90;;;;;;5035557;28;19982;-77
2022/03/10 03:08:26;;;;;;;;;;;1.70;99.90;;;;;;5045076;28;19924;-76
2022/03/10 03:10:53;;;;;;;;;;;1.70;99.90;;;;;;5036169;28;19929;-76
2022/03/10 03:13:20;;;;;;;;;;;1.70;99.90;;;;;;5054453;28;19928;-76
2022/03/10 03:15:46;;;;;;;;;;;1.60;99.90;;;;;;5035786;28;19932;-76
2022/03/10 03:18:13;;;;;;;;;;;1.60;99.90;;;;;;5037761;28;19925;-76
2022/03/10 03:20:39;;;;;;;;;;;1.60;99.90;;;;;;5036411;28;19932;-80
2022/03/10 03:23:06;;;;;;;;;;;1.50;99.90;;;;;;5036265;28;20380;-76
2022/03/10 03:25:32;;;;;;;;;;;1.50;99.90;;;;;;5035870;28;19925;-75
2022/03/10 03:27:59;;;;;;;;;;;1.50;99.90;;;;;;5036809;28;19924;-75
2022/03/10 03:30:25;;;;;;;;;;;1.50;99.90;;;;;;5054001;28;19929;-76
2022/03/10 03:32:52;;;;;;;;;;;1.50;99.90;;;;;;5035773;28;19928;-77
2022/03/10 03:35:18;;;;;;;;;;;1.40;99.90;;;;;;5053323;28;19929;-77
2022/03/10 03:37:45;;;;;;;;;;;1.40;99.90;;;;;;5035957;28;19924;-76
2022/03/10 03:40:11;;;;;;;;;;;1.40;99.90;;;;;;5044286;28;19932;-75
2022/03/10 03:42:38;;;;;;;;;;;1.30;99.90;;;;;;5051812;28;19924;-76
2022/03/10 03:45:04;;;;;;;;;;;1.30;99.90;;;;;;5041838;28;19925;-76
2022/03/10 03:47:31;;;;;;;;;;;1.10;99.90;;;;;;5043214;28;19929;-76
2022/03/10 03:49:58;;;;;;;;;;;1.00;99.90;;;;;;5046291;28;19947;-76
2022/03/10 03:52:24;;;;;;;;;;;1.00;99.90;;;;;;5064983;28;19925;-75
2022/03/10 03:54:51;;;;;;;;;;;1.00;99.90;;;;;;5056472;28;19925;-75
2022/03/10 03:57:17;;;;;;;;;;;0.90;99.90;;;;;;5047329;28;20265;-77
2022/03/10 03:59:44;;;;;;;;;;;0.90;99.90;;;;;;5060719;28;20074;-80
2022/03/10 04:02:10;;;;;;;;;;;1.00;99.90;;;;;;5048562;28;20360;-80
2022/03/10 04:04:37;;;;;;;;;;;1.00;99.90;;;;;;5063109;28;20387;-77
2022/03/10 04:07:04;;;;;;;;;;;1.00;99.90;;;;;;5044175;28;19928;-76
2022/03/10 04:09:30;;;;;;;;;;;1.10;99.90;;;;;;5041100;28;19924;-75
2022/03/10 04:11:57;;;;;;;;;;;1.10;99.90;;;;;;5060444;28;19982;-76
2022/03/10 04:14:23;;;;;;;;;;;1.10;99.90;;;;;;5054880;28;19925;-74
2022/03/10 04:16:50;;;;;;;;;;;1.10;99.90;;;;;;5040618;28;20014;-76
2022/03/10 04:19:17;;;;;;;;;;;1.10;99.90;;;;;;5055420;28;19924;-79
2022/03/10 04:21:44;;;;;;;;;;;1.10;99.90;;;;;;5041865;28;20340;-80
2022/03/10 04:24:11;;;;;;;;;;;1.10;99.90;;;;;;5041022;28;20024;-75
2022/03/10 04:26:38;;;;;;;;;;;1.10;99.90;;;;;;5058452;28;19925;-79
2022/03/10 04:29:04;;;;;;;;;;;1.10;99.90;;;;;;5056154;28;19925;-77
2022/03/10 04:31:31;;;;;;;;;;;1.00;99.90;;;;;;5057153;28;20011;-76
2022/03/10 04:33:57;;;;;;;;;;;1.00;99.90;;;;;;5063414;28;19924;-76
2022/03/10 04:36:24;;;;;;;;;;;1.10;99.90;;;;;;5036304;28;20360;-77
2022/03/10 04:38:51;;;;;;;;;;;1.10;99.90;;;;;;5035174;28;20291;-77
2022/03/10 04:41:17;;;;;;;;;;;1.10;99.90;;;;;;5036293;28;19931;-76
2022/03/10 04:43:44;;;;;;;;;;;1.10;99.90;;;;;;5052527;28;19931;-75
2022/03/10 04:46:10;;;;;;;;;;;1.00;99.90;;;;;;5034689;28;19924;-77
2022/03/10 04:48:37;;;;;;;;;;;1.00;99.90;;;;;;5066965;28;19965;-76
2022/03/10 04:51:03;;;;;;;;;;;1.00;99.90;;;;;;5044779;28;19939;-77
2022/03/10 04:53:30;;;;;;;;;;;1.00;99.90;;;;;;5064674;28;19924;-77
2022/03/10 04:55:56;;;;;;;;;;;0.90;99.90;;;;;;5067495;28;19925;-76
2022/03/10 04:58:23;;;;;;;;;;;0.80;99.90;;;;;;5046399;28;19925;-75
2022/03/10 05:00:50;;;;;;;;;;;0.80;99.90;;;;;;5053304;28;19960;-77
2022/03/10 05:03:16;;;;;;;;;;;0.70;99.90;;;;;;5063071;28;19929;-76
2022/03/10 05:05:43;;;;;;;;;;;0.70;99.90;;;;;;5044341;28;19928;-76
2022/03/10 05:08:09;;;;;;;;;;;0.60;99.90;;;;;;5060751;28;19924;-75
2022/03/10 05:10:36;;;;;;;;;;;0.60;99.90;;;;;;5048141;28;19928;-76
2022/03/10 05:13:02;;;;;;;;;;;0.60;99.90;;;;;;5046737;28;20308;-75
2022/03/10 05:15:31;;;;;;;;;;;0.60;99.90;;;;;;5046726;28;20217;-77
2022/03/10 05:17:57;;;;;;;;;;;0.60;99.90;;;;;;5041702;28;19933;-77
2022/03/10 05:20:25;;;;;;;;;;;0.60;99.90;;;;;;5043965;28;19925;-77
2022/03/10 05:22:51;;;;;;;;;;;0.60;99.90;;;;;;5059840;28;20019;-80
2022/03/10 05:25:18;;;;;;;;;;;0.60;99.90;;;;;;5039054;28;19925;-76
2022/03/10 05:27:44;;;;;;;;;;;0.60;99.90;;;;;;5060379;28;19925;-77
2022/03/10 05:30:11;;;;;;;;;;;0.60;99.90;;;;;;5039611;28;19921;-76
2022/03/10 05:32:37;;;;;;;;;;;0.60;99.90;;;;;;5043826;28;19935;-77
2022/03/10 05:35:04;;;;;;;;;;;0.70;99.90;;;;;;5045092;28;19924;-76
2022/03/10 05:37:30;;;;;;;;;;;0.70;99.90;;;;;;5042887;28;19925;-77
2022/03/10 05:39:57;;;;;;;;;;;0.70;99.90;;;;;;5040231;28;19991;-77
2022/03/10 05:42:24;;;;;;;;;;;0.70;99.90;;;;;;5047602;28;19925;-80
2022/03/10 05:44:50;;;;;;;;;;;0.70;99.90;;;;;;5040171;28;19931;-80
2022/03/10 05:47:17;;;;;;;;;;;0.80;99.90;;;;;;5050942;28;19931;-76
2022/03/10 05:49:43;;;;;;;;;;;0.80;99.90;;;;;;5052092;28;19932;-77
2022/03/10 05:52:10;;;;;;;;;;;0.80;99.90;;;;;;5049236;28;19928;-77
2022/03/10 05:54:36;;;;;;;;;;;0.70;99.90;;;;;;5062328;28;19929;-77
2022/03/10 05:57:03;;;;;;;;;;;0.70;99.90;;;;;;5042257;28;20040;-77
2022/03/10 05:59:29;;;;;;;;;;;0.60;99.90;;;;;;5054322;28;20292;-77
2022/03/10 06:01:56;;;;;;;;;;;0.70;99.90;;;;;;5048800;28;20279;-77
2022/03/10 06:04:22;;;;;;;;;;;0.60;99.90;;;;;;5045129;28;20410;-77
2022/03/10 06:06:49;;;;;;;;;;;0.60;99.90;;;;;;5069717;28;19924;-77
2022/03/10 06:09:15;;;;;;;;;;;0.70;99.90;;;;;;5048402;28;19925;-77
2022/03/10 06:11:43;;;;;;;;;;;0.70;99.90;;;;;;5046964;28;19925;-77
2022/03/10 06:14:10;;;;;;;;;;;0.70;99.90;;;;;;5059676;28;19974;-76
2022/03/10 06:16:36;;;;;;;;;;;0.70;99.90;;;;;;5054369;28;19925;-77
2022/03/10 06:19:03;;;;;;;;;;;0.80;99.90;;;;;;5063516;28;19935;-77
2022/03/10 06:21:29;;;;;;;;;;;0.80;99.90;;;;;;5050092;28;19931;-75
2022/03/10 06:23:56;;;;;;;;;;;0.80;99.90;;;;;;5061703;28;19931;-80
2022/03/10 06:26:22;;;;;;;;;;;0.90;99.90;;;;;;5038492;28;19929;-77
2022/03/10 06:28:49;;;;;;;;;;;0.90;99.90;;;;;;5038394;28;19931;-79
2022/03/10 06:31:15;;;;;;;;;;;1.00;99.90;;;;;;5037737;28;19925;-77
2022/03/10 06:33:42;;;;;;;;;;;1.10;99.90;;;;;;5040482;28;19925;-77
2022/03/10 06:36:09;;;;;;;;;;;1.20;99.90;;;;;;5035206;28;20292;-77
2022/03/10 06:38:36;;;;;;;;;;;1.30;99.90;;;;;;5054946;28;19931;-77
2022/03/10 06:41:03;;;;;;;;;;;1.50;99.90;;;;;;5054817;28;20298;-75
2022/03/10 06:43:29;;;;;;;;;;;1.60;99.90;;;;;;5041310;28;19928;-77
2022/03/10 06:45:56;;;;;;;;;;;1.80;99.90;;;;;;5037956;28;19924;-80
2022/03/10 06:48:23;;;;;;;;;;;2.00;99.90;;;;;;5036331;28;19936;-77
2022/03/10 06:50:49;;;;;;;;;;;2.20;99.90;;;;;;5036553;28;19925;-76
2022/03/10 06:53:16;;;;;;;;;;;2.40;99.90;;;;;;5036683;28;19932;-76
2022/03/10 06:55:42;;;;;;;;;;;2.60;99.90;;;;;;5039790;28;19925;-77
2022/03/10 06:58:09;;;;;;;;;;;2.80;99.90;;;;;;5037482;28;19931;-78
2022/03/10 07:00:36;;;;;;;;;;;3.00;99.90;;;;;;5039929;28;19931;-77
2022/03/10 07:03:02;;;;;;;;;;;3.20;99.90;;;;;;5038668;28;19934;-78
2022/03/10 07:05:29;;;;;;;;;;;3.30;99.90;;;;;;5054766;28;19925;-78
2022/03/10 07:07:55;;;;;;;;;;;3.50;99.90;;;;;;5055464;28;19932;-78
2022/03/10 07:10:22;;;;;;;;;;;3.70;99.90;;;;;;5038121;28;19924;-81
2022/03/10 07:12:48;;;;;;;;;;;3.80;99.90;;;;;;5036709;28;19924;-78
2022/03/10 07:15:15;;;;;;;;;;;3.90;99.90;;;;;;5041316;28;19932;-79
2022/03/10 07:17:42;;;;;;;;;;;4.00;99.90;;;;;;5036483;28;19968;-79
2022/03/10 07:20:08;;;;;;;;;;;4.20;99.90;;;;;;5036954;28;20012;-79
2022/03/10 07:22:35;;;;;;;;;;;4.10;99.90;;;;;;5037519;28;19924;-79
2022/03/10 07:25:01;;;;;;;;;;;4.20;99.90;;;;;;5037608;28;19931;-78
2022/03/10 07:27:28;;;;;;;;;;;4.30;99.90;;;;;;5037573;28;19925;-78
2022/03/10 07:29:54;;;;;;;;;;;4.40;99.90;;;;;;5036601;28;20382;-79
2022/03/10 07:32:21;;;;;;;;;;;4.50;99.90;;;;;;5038841;28;20362;-79
2022/03/10 07:34:48;;;;;;;;;;;4.70;99.90;;;;;;5036805;28;20560;-78
2022/03/10 07:37:15;;;;;;;;;;;4.90;99.90;;;;;;5037343;28;19929;-78
2022/03/10 07:39:42;;;;;;;;;;;5.10;99.90;;;;;;5038268;28;20509;-79
2022/03/10 07:42:08;;;;;;;;;;;5.20;99.90;;;;;;5038327;28;20379;-78
2022/03/10 07:44:35;;;;;;;;;;;5.30;99.80;;;;;;5056747;28;19925;-79
2022/03/10 07:47:01;;;;;;;;;;;5.40;99.70;;;;;;5057317;28;19925;-83
2022/03/10 07:49:29;;;;;;;;;;;5.60;99.50;;;;;;5059707;28;20368;-81
2022/03/10 07:51:55;;;;;;;;;;;5.70;99.20;;;;;;5037587;28;19932;-77
2022/03/10 07:54:22;;;;;;;;;;;5.70;99.30;;;;;;5055461;28;19928;-76
2022/03/10 07:56:49;;;;;;;;;;;5.80;99.10;;;;;;5035479;28;19924;-78
2022/03/10 07:59:15;;;;;;;;;;;5.90;99.50;;;;;;5038620;28;19925;-78
2022/03/10 08:01:42;;;;;;;;;;;6.00;99.50;;;;;;5057779;28;19932;-77
2022/03/10 08:04:08;;;;;;;;;;;6.10;99.20;;;;;;5039244;28;19924;-78
2022/03/10 08:06:35;;;;;;;;;;;6.20;98.90;;;;;;5055997;28;19925;-82
2022/03/10 08:09:02;;;;;;;;;;;6.40;98.80;;;;;;5053945;28;19982;-82
2022/03/10 08:11:29;;;;;;;;;;;6.50;99.20;;;;;;5037957;28;19932;-82
2022/03/10 08:13:55;;;;;;;;;;;6.60;98.80;;;;;;5055956;28;19931;-78
2022/03/10 08:16:22;;;;;;;;;;;6.60;98.90;;;;;;5052024;28;19933;-76
2022/03/10 08:18:49;;;;;;;;;;;6.70;98.80;;;;;;5036957;28;19932;-76
2022/03/10 08:21:16;;;;;;;;;;;6.90;99.00;;;;;;5038399;28;20383;-76
2022/03/10 08:23:42;;;;;;;;;;;6.90;98.80;;;;;;5040386;28;19925;-79
2022/03/10 08:26:09;;;;;;;;;;;7.00;98.60;;;;;;5034827;28;19925;-80
2022/03/10 08:28:36;;;;;;;;;;;7.10;99.00;;;;;;5037403;28;19929;-77
2022/03/10 08:31:04;;;;;;;;;;;7.00;99.00;;;;;;5040244;28;20011;-79
2022/03/10 08:33:30;;;;;;;;;;;7.20;99.00;;;;;;5053855;28;19932;-78
2022/03/10 08:35:57;;;;;;;;;;;7.40;98.70;;;;;;5035062;28;20368;-78
2022/03/10 08:38:23;;;;;;;;;;;7.50;99.10;;;;;;5034338;28;20402;-78
2022/03/10 08:40:51;;;;;;;;;;;7.50;99.60;;;;;;5038802;28;19925;-78
2022/03/10 08:43:18;;;;;;;;;;;7.70;98.80;;;;;;5056018;28;19925;-78
2022/03/10 08:45:44;;;;;;;;;;;7.90;98.40;;;;;;5059351;28;19933;-81
2022/03/10 08:48:11;;;;;;;;;;;8.00;97.80;;;;;;5041499;28;19925;-78
2022/03/10 08:50:38;;;;;;;;;;;8.10;98.20;;;;;;5054557;28;19925;-78
2022/03/10 08:53:05;;;;;;;;;;;8.30;97.60;;;;;;5044991;28;19968;-82
2022/03/10 08:55:32;;;;;;;;;;;8.40;97.50;;;;;;5045295;28;19925;-78
2022/03/10 08:58:00;;;;;;;;;;;8.50;97.10;;;;;;5052849;28;19986;-81
2022/03/10 09:00:26;;;;;;;;;;;8.70;96.10;;;;;;5050335;28;19932;-77
2022/03/10 09:02:53;;;;;;;;;;;8.70;95.90;;;;;;5051033;28;19925;-78
2022/03/10 09:05:20;;;;;;;;;;;8.80;95.30;;;;;;5041776;28;19924;-77
2022/03/10 09:07:46;;;;;;;;;;;8.90;94.70;;;;;;5034850;28;19931;-78
2022/03/10 09:10:13;;;;;;;;;;;9.00;95.10;;;;;;5037068;28;20279;-78
2022/03/10 09:12:39;;;;;;;;;;;9.00;95.70;;;;;;5034621;28;19925;-77
2022/03/10 09:15:06;;;;;;;;;;;9.10;94.30;;;;;;5056629;28;19924;-78
2022/03/10 09:17:32;;;;;;;;;;;9.20;94.80;;;;;;5034215;28;19924;-78
2022/03/10 09:19:59;;;;;;;;;;;9.40;94.80;;;;;;5054607;28;19978;-78
2022/03/10 09:22:26;;;;;;;;;;;9.40;92.80;;;;;;5047287;28;19928;-82
2022/03/10 09:24:52;;;;;;;;;;;9.50;93.20;;;;;;5053103;28;19988;-80
2022/03/10 09:27:19;;;;;;;;;;;9.60;92.20;;;;;;5043974;28;19930;-77
2022/03/10 09:29:45;;;;;;;;;;;9.70;93.20;;;;;;5056164;28;19929;-76
2022/03/10 09:32:12;;;;;;;;;;;9.90;93.80;;;;;;5053258;28;20360;-77
2022/03/10 09:34:39;;;;;;;;;;;9.90;93.20;;;;;;5039013;28;19951;-77
2022/03/10 09:37:06;;;;;;;;;;;10.00;93.40;;;;;;5035891;28;19929;-77
2022/03/10 09:39:32;;;;;;;;;;;10.20;93.30;;;;;;5062132;28;20291;-78
2022/03/10 09:41:59;;;;;;;;;;;10.30;91.70;;;;;;5061184;28;20375;-76
2022/03/10 09:44:25;;;;;;;;;;;10.40;91.30;;;;;;5058363;28;20388;-77
2022/03/10 09:46:53;;;;;;;;;;;10.60;92.20;;;;;;5053686;28;19964;-76
2022/03/10 09:49:19;;;;;;;;;;;10.60;91.10;;;;;;5057759;28;19924;-77
2022/03/10 09:51:46;;;;;;;;;;;10.70;89.70;;;;;;5057701;28;20407;-76
2022/03/10 09:54:12;;;;;;;;;;;10.60;90.30;;;;;;5042845;28;19925;-78
2022/03/10 09:56:39;;;;;;;;;;;10.90;90.70;;;;;;5055173;28;20291;-76
2022/03/10 09:59:06;;;;;;;;;;;11.00;90.50;;;;;;5046107;28;20382;-77
2022/03/10 10:01:32;;;;;;;;;;;11.10;89.30;;;;;;5048882;28;19932;-77
2022/03/10 10:03:59;;;;;;;;;;;11.20;88.30;;;;;;5054844;28;19925;-78
2022/03/10 10:06:25;;;;;;;;;;;11.30;89.50;;;;;;5046987;28;20390;-77
2022/03/10 10:08:52;;;;;;;;;;;11.40;89.40;;;;;;5036339;28;19924;-76
2022/03/10 10:11:19;;;;;;;;;;;11.50;88.00;;;;;;5053753;28;20015;-77
2022/03/10 10:13:47;;;;;;;;;;;11.50;87.10;;;;;;5055774;28;19936;-80
2022/03/10 10:16:14;;;;;;;;;;;11.60;85.60;;;;;;5047659;28;19925;-82
2022/03/10 10:18:40;;;;;;;;;;;11.60;83.50;;;;;;5057241;28;19983;-77
2022/03/10 10:21:07;;;;;;;;;;;11.70;85.60;;;;;;5047649;28;19925;-77
2022/03/10 10:23:33;;;;;;;;;;;11.90;85.70;;;;;;5055950;28;19932;-76
2022/03/10 10:26:00;;;;;;;;;;;12.00;82.90;;;;;;5037613;28;19932;-77
2022/03/10 10:28:29;;;;;;;;;;;12.10;82.00;;;;;;5059834;28;19925;-81
2022/03/10 10:30:56;;;;;;;;;;;12.20;81.90;;;;;;5058485;28;19928;-78
2022/03/10 10:33:22;;;;;;;;;;;12.10;80.10;;;;;;5059754;28;19932;-77
2022/03/10 10:35:49;;;;;;;;;;;12.30;79.60;;;;;;5068150;28;19932;-78
2022/03/10 10:38:15;;;;;;;;;;;12.40;74.90;;;;;;5062122;28;19932;-82
2022/03/10 10:40:42;;;;;;;;;;;12.40;74.40;;;;;;5051782;28;19932;-78
2022/03/10 10:43:08;;;;;;;;;;;12.40;75.30;;;;;;5061115;28;19928;-76
2022/03/10 10:45:35;;;;;;;;;;;12.50;73.50;;;;;;5068998;28;20598;-76
2022/03/10 10:48:01;;;;;;;;;;;12.50;71.50;;;;;;5062216;28;20294;-79
2022/03/10 10:50:28;;;;;;;;;;;12.60;73.20;;;;;;5058038;28;20405;-76
2022/03/10 10:52:54;;;;;;;;;;;12.60;69.00;;;;;;5054254;28;20380;-80
2022/03/10 10:55:21;;;;;;;;;;;12.70;69.10;;;;;;5041138;28;20382;-77
2022/03/10 10:57:48;;;;;;;;;;;12.80;69.70;;;;;;5056180;28;19932;-78
2022/03/10 11:00:14;;;;;;;;;;;12.80;67.60;;;;;;5040129;28;19929;-81
2022/03/10 11:02:44;;;;;;;;;;;12.80;68.80;;;;;;5056727;28;19978;-78
2022/03/10 11:05:11;;;;;;;;;;;12.90;68.50;;;;;;5039966;28;19935;-78
2022/03/10 11:07:38;;;;;;;;;;;13.00;67.00;;;;;;5056898;28;19935;-79
2022/03/10 11:10:04;;;;;;;;;;;13.00;65.60;;;;;;5058896;28;19928;-79
2022/03/10 11:12:33;;;;;;;;;;;13.00;65.40;;;;;;5057458;28;19939;-79
2022/03/10 11:15:00;;;;;;;;;;;13.10;64.20;;;;;;5045960;28;19928;-79
2022/03/10 11:17:27;;;;;;;;;;;13.10;65.70;;;;;;5035026;28;19935;-79
2022/03/10 11:19:54;;;;;;;;;;;13.20;65.50;;;;;;5035898;28;20368;-80
2022/03/10 11:22:21;;;;;;;;;;;13.20;62.90;;;;;;5054713;28;20287;-79
2022/03/10 11:24:47;;;;;;;;;;;13.20;62.40;;;;;;5055174;28;19924;-79
2022/03/10 11:27:14;;;;;;;;;;;13.40;61.90;;;;;;5058072;28;20016;-79
2022/03/10 11:29:40;;;;;;;;;;;13.40;62.50;;;;;;5036346;28;19925;-79
2022/03/10 11:32:07;;;;;;;;;;;13.50;63.80;;;;;;5056964;28;19925;-77
2022/03/10 11:34:34;;;;;;;;;;;13.50;62.40;;;;;;5057985;28;19924;-79
2022/03/10 11:37:00;;;;;;;;;;;13.60;62.10;;;;;;5037036;28;19932;-78
2022/03/10 11:39:29;;;;;;;;;;;13.60;59.80;;;;;;5056939;28;19932;-78
2022/03/10 11:42:00;;;;;;;;;;;13.70;62.30;;;;;;5042701;28;20292;-79
2022/03/10 11:44:27;;;;;;;;;;;13.70;59.90;;;;;;5057284;28;19928;-78
2022/03/10 11:46:53;;;;;;;;;;;13.80;60.60;;;;;;5041184;28;19947;-79
2022/03/10 11:49:20;;;;;;;;;;;13.80;60.60;;;;;;5055474;28;19935;-83
2022/03/10 11:51:46;;;;;;;;;;;13.80;58.70;;;;;;5039864;28;20363;-78
2022/03/10 11:54:13;;;;;;;;;;;13.90;59.80;;;;;;5042360;28;20299;-79
2022/03/10 11:56:40;;;;;;;;;;;14.00;58.80;;;;;;5036251;28;19920;-79
2022/03/10 11:59:06;;;;;;;;;;;14.00;57.60;;;;;;5052819;28;20287;-79
2022/03/10 12:01:33;;;;;;;;;;;14.00;58.10;;;;;;5039232;28;20333;-78
2022/03/10 12:03:59;;;;;;;;;;;14.10;55.50;;;;;;5034813;28;20276;-78
2022/03/10 12:06:26;;;;;;;;;;;14.00;56.50;;;;;;5039785;28;20368;-78
2022/03/10 12:08:53;;;;;;;;;;;14.10;56.70;;;;;;5058869;28;19925;-78
2022/03/10 12:11:19;;;;;;;;;;;14.00;55.50;;;;;;5057900;28;19932;-83
2022/03/10 12:13:46;;;;;;;;;;;14.10;56.70;;;;;;5038312;28;20087;-76
2022/03/10 12:16:13;;;;;;;;;;;14.10;56.80;;;;;;5033100;28;20276;-77
2022/03/10 12:18:39;;;;;;;;;;;14.20;57.40;;;;;;5045265;28;19925;-77
2022/03/10 12:21:06;;;;;;;;;;;14.30;58.60;;;;;;5048640;28;19978;-77
2022/03/10 12:23:32;;;;;;;;;;;14.30;55.40;;;;;;5044312;28;19932;-77
2022/03/10 12:26:00;;;;;;;;;;;14.40;56.50;;;;;;5047210;28;20380;-77
2022/03/10 12:28:27;;;;;;;;;;;14.40;57.00;;;;;;5046227;28;19932;-77
2022/03/10 12:30:53;;;;;;;;;;;14.50;54.20;;;;;;5050045;28;19925;-77
2022/03/10 12:33:20;;;;;;;;;;;14.50;55.00;;;;;;5050208;28;19925;-83
2022/03/10 12:35:47;;;;;;;;;;;14.50;55.60;;;;;;5039368;28;19929;-76
2022/03/10 12:38:14;;;;;;;;;;;14.50;57.00;;;;;;5049379;28;19924;-76
2022/03/10 12:40:41;;;;;;;;;;;14.60;56.50;;;;;;5039437;28;19925;-77
2022/03/10 12:43:07;;;;;;;;;;;14.60;56.80;;;;;;5047033;28;19935;-77
2022/03/10 12:45:34;;;;;;;;;;;14.70;56.00;;;;;;5044348;28;19925;-76
2022/03/10 12:48:00;;;;;;;;;;;14.60;53.10;;;;;;5039006;28;19952;-77
2022/03/10 12:50:27;;;;;;;;;;;14.60;55.80;;;;;;5044476;28;19929;-77
2022/03/10 12:52:55;;;;;;;;;;;14.60;55.80;;;;;;5031952;28;19925;-77
2022/03/10 12:55:22;;;;;;;;;;;14.60;54.50;;;;;;5036769;28;20426;-83
2022/03/10 12:57:49;;;;;;;;;;;14.60;54.30;;;;;;5031755;28;19975;-77
2022/03/10 13:00:15;;;;;;;;;;;14.60;53.60;;;;;;5038552;28;19924;-76
2022/03/10 13:02:44;;;;;;;;;;;14.60;54.60;;;;;;5033954;28;20453;-77
2022/03/10 13:05:13;;;;;;;;;;;14.70;54.50;;;;;;5033535;28;19933;-76
2022/03/10 13:07:39;;;;;;;;;;;14.70;53.90;;;;;;5038353;28;19925;-76
2022/03/10 13:10:06;;;;;;;;;;;14.70;54.60;;;;;;5044599;28;19931;-76
2022/03/10 13:12:33;;;;;;;;;;;14.80;54.40;;;;;;5045551;28;19932;-77
2022/03/10 13:14:59;;;;;;;;;;;14.80;54.20;;;;;;5047111;28;19929;-78
2022/03/10 13:17:26;;;;;;;;;;;14.90;52.80;;;;;;5048446;28;19932;-77
2022/03/10 13:19:53;;;;;;;;;;;15.00;52.30;;;;;;5041257;28;19925;-77
2022/03/10 13:22:19;;;;;;;;;;;15.00;52.50;;;;;;5036692;28;19928;-77
2022/03/10 13:24:46;;;;;;;;;;;15.00;53.40;;;;;;5037784;28;20027;-77
2022/03/10 13:27:12;;;;;;;;;;;15.00;52.40;;;;;;5044939;28;19932;-77
2022/03/10 13:29:39;;;;;;;;;;;15.00;51.70;;;;;;5037469;28;19932;-77
2022/03/10 13:32:05;;;;;;;;;;;15.00;53.60;;;;;;5049469;28;19948;-81
2022/03/10 13:34:32;;;;;;;;;;;15.10;52.20;;;;;;5043714;28;19931;-76
2022/03/10 13:36:58;;;;;;;;;;;15.00;50.50;;;;;;5043880;28;19925;-77
2022/03/10 13:39:25;;;;;;;;;;;15.10;51.40;;;;;;5044447;28;19925;-83
2022/03/10 13:41:52;;;;;;;;;;;15.10;52.70;;;;;;5050970;28;20421;-77
2022/03/10 13:44:19;;;;;;;;;;;15.10;51.40;;;;;;5045228;28;20019;-78
2022/03/10 13:46:45;;;;;;;;;;;15.10;50.30;;;;;;5044392;28;20606;-78
2022/03/10 13:49:12;;;;;;;;;;;15.00;50.30;;;;;;5039772;28;19932;-77
2022/03/10 13:51:38;;;;;;;;;;;15.10;48.60;;;;;;5033814;28;19940;-78
2022/03/10 13:54:05;;;;;;;;;;;15.00;51.50;;;;;;5052523;28;19975;-78
2022/03/10 13:56:31;;;;;;;;;;;15.00;50.50;;;;;;5039860;28;20378;-79
2022/03/10 13:58:58;;;;;;;;;;;15.00;51.60;;;;;;5040202;28;20322;-81
2022/03/10 14:01:25;;;;;;;;;;;15.00;50.50;;;;;;5042224;28;19925;-78
2022/03/10 14:03:51;;;;;;;;;;;15.00;49.30;;;;;;5044077;28;19924;-79
2022/03/10 14:06:18;;;;;;;;;;;15.10;50.30;;;;;;5043394;28;19936;-78
2022/03/10 14:08:44;;;;;;;;;;;15.00;50.00;;;;;;5040248;28;20011;-78
2022/03/10 14:11:11;;;;;;;;;;;15.00;49.60;;;;;;5048325;28;19933;-79
2022/03/10 14:13:37;;;;;;;;;;;15.00;49.40;;;;;;5037211;28;20380;-79
2022/03/10 14:16:04;;;;;;;;;;;15.00;50.00;;;;;;5053038;28;19932;-79
2022/03/10 14:18:30;;;;;;;;;;;15.00;50.60;;;;;;5037015;28;20276;-84
2022/03/10 14:20:58;;;;;;;;;;;15.00;50.00;;;;;;5043104;28;19936;-83
2022/03/10 14:23:25;;;;;;;;;;;15.00;50.50;;;;;;5045559;28;20034;-80
2022/03/10 14:25:52;;;;;;;;;;;15.00;50.00;;;;;;5042166;28;19925;-79
2022/03/10 14:28:18;;;;;;;;;;;15.00;48.50;;;;;;5045673;28;20024;-79